Terminal Aerodrome Forecast
Issued by NWS Des Moines, IA

Home | Current Version | Previous Version | Text Only | Print | Product List | Glossary On
Versions: 1 2 3 4 5 6 7 8 9 10 11 12 13 14 15 16 17 18 19 20 21
000
FTUS43 KDMX 032334
TAFALO
TAF
KALO 032334Z 0400/0424 28012G21KT P6SM SCT070
     FM040200 27012KT P6SM VCSH BKN060
     FM040600 33011KT P6SM SKC
     FM041500 34017G25KT P6SM SKC=

USA.gov is the U.S. government's official web portal to all federal, state and local government web resources and services.